Bell City, Louisiana
Current Conditions -  °F | °C
As of 11:50 AM on Sunday 25 Jan 2015 (Local Time) from KCWF Reporting Station
Clear Clear  
Wind Chill: 64°   Ceiling: Unl
Heat Index: 64°   Visibility: 10mi
Dew Point: 43°   Wind: 13mph
Humidity: 45%   Direction: 220°SW
Pressure: 29.98"   Gusts: 17mph
Location:  30.11°N, 92.96°W
Report Text: KCWF 251750Z 22011G15KT 10SM SKC 18/06 A2998
Loading
Personal Weather Stations






























Interactive Weather Map New forecast layout! Learn more

10-Day Weather Forecast

Advertisements
Track Severe Weather on mobile